Pagrindinis puslapis
METAR-TAF:

METAR-TAF

Oro uostai :

Olesiundas, Norvegija

platuma: 62-34N, ilguma: 006-07E, Aukštis: 2 m

Dabartinis oras

Ataskaita buvo paskelbta 20 minutes, ne 01:20 UTC
Vėjas 11 kt iš Rytų/Pietryčių
Temperatūra 0°C
Drėgmė 80%
Slėgis 998 hPa
Matomumas 10 km arba daugiau

METAR: ENAL 250120Z AUTO 12011KT 9999 NCD 00/M03 Q0998

Laikas: 02:40 (01:40 UTC)

Prognozė

Ataskaita buvo paskelbta 8 valandos ir 40 minutes, ne 17:00 UTC
Prognozė galioja nuo 24 metu 18 UTC su 24 metu 23 UTC
Vėjas 8 kt iš Vakarų
Matomumas 10 km arba daugiau
Mažai debesys ne aukštis 1500 ft, aukštai iškilę kamuoliniai debesys.
Išsisklaidę debesys ne aukštis 4000 ft
Tapsmas
nuo 24 metu 19 UTC su 24 metu 21 UTC
Vėjas 12 kt iš Rytų/Pietryčių

TAF: ENAL 241700Z 2418/2423 28008KT 9999 FEW015TCU SCT040 BECMG 2419/2421 12012KT

Orai ataskaitas ir orų prognozės (METAR, TAF).

turimą stotys yra geltonos ir raudonos taškus žemėlapyje.

Perkelti pele per norėdami pamatyti stoties vardą.

Tada spustelėkite, norėdami matyti oro stebėjimo ir prognozės.

Norėdami pakeisti žemėlapį: spustelėkite ant žalios mygtukų su juodo kryžiaus žemyn,; žalią mygtuką su brūkšneliu, jei norite nutolinti; arba žalių rodyklių gretimoms žemėlapius.


METAR-TAF: